Pagina principale
METAR-TAF:

METAR-TAF

Aeroporti :

Biserta, Tunisia

latitudine: 37-15N, longitudine: 009-48E, altezza: 5 m

Osservazione

Il bollettino è stato emesso 22 minuti fa, alle 15:00 UTC
Vento calmo
Temperature 19°C
Umidità 73%
Pressione 1011 hPa
Visibilità 10 km o più
Nubi sparse ad un'altezza di 2000 ft

METAR: DTTB 061500Z 00000KT 9999 SCT020 19/14 Q1011

Ora: 16:22 (15:22 UTC)

Previsione

Il bollettino è stato emesso 3 ore e 22 minuti fa, alle 12:00 UTC
Previsione valida dal 06 alle 13 UTC al 06 alle 22 UTC
Vento 3 kt da direzioni variabili
Visibilità 10 km o più
Nubi sparse ad un'altezza di 2000 ft
Evoluzione graduale
dal 06 alle 15 UTC al 06 alle 17 UTC
Vento 12 kt da ovest

TAF: DTTB 061200Z 0613/0622 VRB03KT 9999 SCT020 BECMG 0615/0617 28012KT

Osservazioni e previsioni meteorologiche di più di 4000 aeroporti (messaggi METAR e TAF).

Le stazioni disponibili sono rappresentate dai dischi gialli e rossi sulla carta.

Puntare il mouse per vedere il nome della stazione.

Clicca sopra per visualizzare le osservazioni e previsioni meteorologiche.

Per cambiare la mappa : fare clic sui pulsanti verdi con una croce nera per ingrandire, il pulsante verde con un trattino per diminuire, o sulla freccia verde per le mappe adiacenti.


METAR-TAF: